sensor_id;sensor_type;location;lat;lon;timestamp;temperature;humidity
23079;DHT22;11707;50.830;4.364;2023-07-08T00:01:52;22.40;1.00
23079;DHT22;11707;50.830;4.364;2023-07-08T00:04:17;22.50;99.90
23079;DHT22;11707;50.830;4.364;2023-07-08T00:06:43;22.40;1.00
23079;DHT22;11707;50.830;4.364;2023-07-08T00:09:10;22.40;1.00
23079;DHT22;11707;50.830;4.364;2023-07-08T00:11:37;22.30;68.50
23079;DHT22;11707;50.830;4.364;2023-07-08T00:14:03;22.30;1.00
23079;DHT22;11707;50.830;4.364;2023-07-08T00:16:29;22.20;1.00
23079;DHT22;11707;50.830;4.364;2023-07-08T00:18:55;22.20;99.90
23079;DHT22;11707;50.830;4.364;2023-07-08T00:21:25;22.10;99.90
23079;DHT22;11707;50.830;4.364;2023-07-08T00:23:53;22.10;99.90
23079;DHT22;11707;50.830;4.364;2023-07-08T00:26:26;22.00;99.90
23079;DHT22;11707;50.830;4.364;2023-07-08T00:28:53;22.00;99.90
23079;DHT22;11707;50.830;4.364;2023-07-08T00:31:19;21.90;99.90
23079;DHT22;11707;50.830;4.364;2023-07-08T00:33:49;21.90;99.90
23079;DHT22;11707;50.830;4.364;2023-07-08T00:36:16;21.70;1.00
23079;DHT22;11707;50.830;4.364;2023-07-08T00:38:43;21.70;1.00
23079;DHT22;11707;50.830;4.364;2023-07-08T00:41:21;21.70;1.00
23079;DHT22;11707;50.830;4.364;2023-07-08T00:43:55;21.50;1.00
23079;DHT22;11707;50.830;4.364;2023-07-08T00:51:30;21.60;1.00
23079;DHT22;11707;50.830;4.364;2023-07-08T00:53:58;21.60;1.00
23079;DHT22;11707;50.830;4.364;2023-07-08T00:56:31;21.50;7.90
23079;DHT22;11707;50.830;4.364;2023-07-08T01:01:56;21.50;1.00
23079;DHT22;11707;50.830;4.364;2023-07-08T01:07:15;21.50;1.00
23079;DHT22;11707;50.830;4.364;2023-07-08T01:09:47;21.50;1.00
23079;DHT22;11707;50.830;4.364;2023-07-08T01:12:19;21.60;1.00
23079;DHT22;11707;50.830;4.364;2023-07-08T01:14:48;21.70;1.00
23079;DHT22;11707;50.830;4.364;2023-07-08T01:17:19;21.70;1.00
23079;DHT22;11707;50.830;4.364;2023-07-08T01:19:45;21.70;1.00
23079;DHT22;11707;50.830;4.364;2023-07-08T01:22:16;21.80;99.90
23079;DHT22;11707;50.830;4.364;2023-07-08T01:24:43;21.60;1.00
23079;DHT22;11707;50.830;4.364;2023-07-08T01:27:15;21.50;1.00
23079;DHT22;11707;50.830;4.364;2023-07-08T01:29:41;21.40;87.90
23079;DHT22;11707;50.830;4.364;2023-07-08T01:32:11;21.30;99.90
23079;DHT22;11707;50.830;4.364;2023-07-08T01:34:44;21.30;99.90
23079;DHT22;11707;50.830;4.364;2023-07-08T01:37:27;21.30;99.90
23079;DHT22;11707;50.830;4.364;2023-07-08T01:39:53;21.20;99.90
23079;DHT22;11707;50.830;4.364;2023-07-08T01:42:19;21.10;99.90
23079;DHT22;11707;50.830;4.364;2023-07-08T01:44:46;21.30;99.90
23079;DHT22;11707;50.830;4.364;2023-07-08T01:47:19;21.10;99.90
23079;DHT22;11707;50.830;4.364;2023-07-08T01:49:47;21.10;99.90
23079;DHT22;11707;50.830;4.364;2023-07-08T01:52:16;21.10;99.90
23079;DHT22;11707;50.830;4.364;2023-07-08T01:54:43;21.30;99.90
23079;DHT22;11707;50.830;4.364;2023-07-08T01:57:08;21.40;99.90
23079;DHT22;11707;50.830;4.364;2023-07-08T01:59:34;21.40;99.90
23079;DHT22;11707;50.830;4.364;2023-07-08T02:02:00;21.30;99.90
23079;DHT22;11707;50.830;4.364;2023-07-08T02:04:29;21.40;99.90
23079;DHT22;11707;50.830;4.364;2023-07-08T02:06:59;21.40;99.90
23079;DHT22;11707;50.830;4.364;2023-07-08T02:09:25;21.40;99.90
23079;DHT22;11707;50.830;4.364;2023-07-08T02:11:52;21.40;99.90
23079;DHT22;11707;50.830;4.364;2023-07-08T02:14:18;21.50;99.90
23079;DHT22;11707;50.830;4.364;2023-07-08T02:16:46;21.40;99.90
23079;DHT22;11707;50.830;4.364;2023-07-08T02:19:14;21.30;99.90
23079;DHT22;11707;50.830;4.364;2023-07-08T02:21:40;21.20;99.90
23079;DHT22;11707;50.830;4.364;2023-07-08T02:24:07;21.20;99.90
23079;DHT22;11707;50.830;4.364;2023-07-08T02:26:35;21.30;99.90
23079;DHT22;11707;50.830;4.364;2023-07-08T02:29:01;21.30;99.90
23079;DHT22;11707;50.830;4.364;2023-07-08T02:31:29;21.30;99.90
23079;DHT22;11707;50.830;4.364;2023-07-08T02:33:57;21.20;99.90
23079;DHT22;11707;50.830;4.364;2023-07-08T02:36:23;21.30;99.90
23079;DHT22;11707;50.830;4.364;2023-07-08T02:38:49;21.30;99.90
23079;DHT22;11707;50.830;4.364;2023-07-08T02:41:16;21.30;99.90
23079;DHT22;11707;50.830;4.364;2023-07-08T02:43:41;21.20;99.90
23079;DHT22;11707;50.830;4.364;2023-07-08T02:46:09;21.30;99.90
23079;DHT22;11707;50.830;4.364;2023-07-08T02:48:35;21.30;99.90
23079;DHT22;11707;50.830;4.364;2023-07-08T02:51:02;21.40;98.50
23079;DHT22;11707;50.830;4.364;2023-07-08T02:53:29;21.40;69.20
23079;DHT22;11707;50.830;4.364;2023-07-08T02:55:57;21.50;19.20
23079;DHT22;11707;50.830;4.364;2023-07-08T02:58:24;21.30;66.50
23079;DHT22;11707;50.830;4.364;2023-07-08T03:00:54;21.30;99.90
23079;DHT22;11707;50.830;4.364;2023-07-08T03:03:20;21.30;98.50
23079;DHT22;11707;50.830;4.364;2023-07-08T03:06:05;21.40;91.40
23079;DHT22;11707;50.830;4.364;2023-07-08T03:08:31;21.40;74.80
23079;DHT22;11707;50.830;4.364;2023-07-08T03:11:00;21.40;99.90
23079;DHT22;11707;50.830;4.364;2023-07-08T03:13:28;21.50;99.90
23079;DHT22;11707;50.830;4.364;2023-07-08T03:15:54;21.40;99.90
23079;DHT22;11707;50.830;4.364;2023-07-08T03:18:21;21.40;99.90
23079;DHT22;11707;50.830;4.364;2023-07-08T03:20:49;21.30;99.90
23079;DHT22;11707;50.830;4.364;2023-07-08T03:23:15;21.40;99.90
23079;DHT22;11707;50.830;4.364;2023-07-08T03:25:43;21.30;99.90
23079;DHT22;11707;50.830;4.364;2023-07-08T03:28:08;21.20;99.90
23079;DHT22;11707;50.830;4.364;2023-07-08T03:30:40;21.20;99.90
23079;DHT22;11707;50.830;4.364;2023-07-08T03:33:07;21.10;99.90
23079;DHT22;11707;50.830;4.364;2023-07-08T03:35:35;21.10;99.90
23079;DHT22;11707;50.830;4.364;2023-07-08T03:38:02;21.10;99.90
23079;DHT22;11707;50.830;4.364;2023-07-08T03:40:30;21.30;99.90
23079;DHT22;11707;50.830;4.364;2023-07-08T03:42:57;21.30;99.90
23079;DHT22;11707;50.830;4.364;2023-07-08T03:45:22;21.30;99.90
23079;DHT22;11707;50.830;4.364;2023-07-08T03:47:48;21.30;99.90
23079;DHT22;11707;50.830;4.364;2023-07-08T03:50:19;21.30;99.90
23079;DHT22;11707;50.830;4.364;2023-07-08T03:52:49;21.10;99.90
23079;DHT22;11707;50.830;4.364;2023-07-08T03:55:16;21.10;99.90
23079;DHT22;11707;50.830;4.364;2023-07-08T03:57:41;21.00;99.90
23079;DHT22;11707;50.830;4.364;2023-07-08T04:00:08;21.00;99.90
23079;DHT22;11707;50.830;4.364;2023-07-08T04:02:38;21.00;99.90
23079;DHT22;11707;50.830;4.364;2023-07-08T04:05:04;20.80;99.90
23079;DHT22;11707;50.830;4.364;2023-07-08T04:07:31;20.90;99.90
23079;DHT22;11707;50.830;4.364;2023-07-08T04:09:59;21.00;99.90
23079;DHT22;11707;50.830;4.364;2023-07-08T04:12:27;21.00;99.90
23079;DHT22;11707;50.830;4.364;2023-07-08T04:14:53;21.00;99.90
23079;DHT22;11707;50.830;4.364;2023-07-08T04:17:21;20.90;99.90
23079;DHT22;11707;50.830;4.364;2023-07-08T04:19:50;20.80;99.90
23079;DHT22;11707;50.830;4.364;2023-07-08T04:22:15;20.90;99.90
23079;DHT22;11707;50.830;4.364;2023-07-08T04:24:41;21.00;99.90
23079;DHT22;11707;50.830;4.364;2023-07-08T04:27:15;21.10;99.90
23079;DHT22;11707;50.830;4.364;2023-07-08T04:29:44;21.10;99.90
23079;DHT22;11707;50.830;4.364;2023-07-08T04:32:10;21.10;99.90
23079;DHT22;11707;50.830;4.364;2023-07-08T04:34:36;21.10;99.90
23079;DHT22;11707;50.830;4.364;2023-07-08T04:37:01;21.00;99.90
23079;DHT22;11707;50.830;4.364;2023-07-08T04:39:30;21.00;99.90
23079;DHT22;11707;50.830;4.364;2023-07-08T04:41:56;21.10;99.90
23079;DHT22;11707;50.830;4.364;2023-07-08T04:44:22;21.10;99.90
23079;DHT22;11707;50.830;4.364;2023-07-08T04:47:00;21.10;99.90
23079;DHT22;11707;50.830;4.364;2023-07-08T04:49:25;21.10;99.90
23079;DHT22;11707;50.830;4.364;2023-07-08T04:51:57;21.00;99.90
23079;DHT22;11707;50.830;4.364;2023-07-08T04:54:25;21.10;99.90
23079;DHT22;11707;50.830;4.364;2023-07-08T04:56:50;21.10;99.90
23079;DHT22;11707;50.830;4.364;2023-07-08T04:59:21;21.10;99.90
23079;DHT22;11707;50.830;4.364;2023-07-08T05:01:47;21.20;99.90
23079;DHT22;11707;50.830;4.364;2023-07-08T05:04:19;21.20;99.90
23079;DHT22;11707;50.830;4.364;2023-07-08T05:06:45;21.10;99.90
23079;DHT22;11707;50.830;4.364;2023-07-08T05:09:12;21.10;99.90
23079;DHT22;11707;50.830;4.364;2023-07-08T05:11:37;21.20;99.90
23079;DHT22;11707;50.830;4.364;2023-07-08T05:14:03;21.20;99.90
23079;DHT22;11707;50.830;4.364;2023-07-08T05:16:29;21.40;99.90
23079;DHT22;11707;50.830;4.364;2023-07-08T05:18:57;21.30;99.90
23079;DHT22;11707;50.830;4.364;2023-07-08T05:21:23;21.30;99.90
23079;DHT22;11707;50.830;4.364;2023-07-08T05:23:51;21.40;99.90
23079;DHT22;11707;50.830;4.364;2023-07-08T05:26:17;21.50;99.90
23079;DHT22;11707;50.830;4.364;2023-07-08T05:28:43;21.50;99.90
23079;DHT22;11707;50.830;4.364;2023-07-08T05:31:11;21.60;99.90
23079;DHT22;11707;50.830;4.364;2023-07-08T05:33:36;21.60;99.90
23079;DHT22;11707;50.830;4.364;2023-07-08T05:36:02;21.70;57.20
23079;DHT22;11707;50.830;4.364;2023-07-08T05:38:28;21.70;99.90
23079;DHT22;11707;50.830;4.364;2023-07-08T05:40:59;21.80;31.90
23079;DHT22;11707;50.830;4.364;2023-07-08T05:43:26;21.80;1.00
23079;DHT22;11707;50.830;4.364;2023-07-08T05:45:56;22.00;1.00
23079;DHT22;11707;50.830;4.364;2023-07-08T05:48:22;22.20;1.00
23079;DHT22;11707;50.830;4.364;2023-07-08T05:50:51;22.40;99.90
23079;DHT22;11707;50.830;4.364;2023-07-08T05:53:18;22.40;99.90
23079;DHT22;11707;50.830;4.364;2023-07-08T05:55:47;22.50;99.90
23079;DHT22;11707;50.830;4.364;2023-07-08T05:58:16;22.60;99.90
23079;DHT22;11707;50.830;4.364;2023-07-08T06:00:42;22.60;98.90
23079;DHT22;11707;50.830;4.364;2023-07-08T06:03:10;22.70;46.20
23079;DHT22;11707;50.830;4.364;2023-07-08T06:05:38;22.60;99.90
23079;DHT22;11707;50.830;4.364;2023-07-08T06:08:08;22.90;1.00
23079;DHT22;11707;50.830;4.364;2023-07-08T06:10:34;22.90;1.00
23079;DHT22;11707;50.830;4.364;2023-07-08T06:13:00;23.00;99.90
23079;DHT22;11707;50.830;4.364;2023-07-08T06:15:25;23.10;99.90
23079;DHT22;11707;50.830;4.364;2023-07-08T06:17:53;23.20;99.90
23079;DHT22;11707;50.830;4.364;2023-07-08T06:20:19;23.50;1.00
23079;DHT22;11707;50.830;4.364;2023-07-08T06:22:44;23.70;1.00
23079;DHT22;11707;50.830;4.364;2023-07-08T06:25:10;23.80;99.90
23079;DHT22;11707;50.830;4.364;2023-07-08T06:27:40;23.90;99.90
23079;DHT22;11707;50.830;4.364;2023-07-08T06:30:07;23.90;1.00
23079;DHT22;11707;50.830;4.364;2023-07-08T06:32:33;24.00;99.90
23079;DHT22;11707;50.830;4.364;2023-07-08T06:34:59;23.90;99.90
23079;DHT22;11707;50.830;4.364;2023-07-08T06:37:24;24.00;99.90
23079;DHT22;11707;50.830;4.364;2023-07-08T06:39:50;24.10;99.90
23079;DHT22;11707;50.830;4.364;2023-07-08T06:42:16;24.20;11.30
23079;DHT22;11707;50.830;4.364;2023-07-08T06:44:41;24.50;99.90
23079;DHT22;11707;50.830;4.364;2023-07-08T06:47:18;24.20;99.90
23079;DHT22;11707;50.830;4.364;2023-07-08T06:49:46;24.20;71.30
23079;DHT22;11707;50.830;4.364;2023-07-08T06:52:11;24.60;99.90
23079;DHT22;11707;50.830;4.364;2023-07-08T06:54:40;24.60;1.00
23079;DHT22;11707;50.830;4.364;2023-07-08T06:57:06;24.60;99.90
23079;DHT22;11707;50.830;4.364;2023-07-08T06:59:33;24.70;99.90
23079;DHT22;11707;50.830;4.364;2023-07-08T07:01:59;25.00;64.30
23079;DHT22;11707;50.830;4.364;2023-07-08T07:04:25;25.00;99.90
23079;DHT22;11707;50.830;4.364;2023-07-08T07:06:50;25.10;99.90
23079;DHT22;11707;50.830;4.364;2023-07-08T07:09:16;25.00;99.90
23079;DHT22;11707;50.830;4.364;2023-07-08T07:11:42;25.00;1.00
23079;DHT22;11707;50.830;4.364;2023-07-08T07:14:07;25.20;1.00
23079;DHT22;11707;50.830;4.364;2023-07-08T07:16:34;25.20;13.20
23079;DHT22;11707;50.830;4.364;2023-07-08T07:18:59;25.30;99.90
23079;DHT22;11707;50.830;4.364;2023-07-08T07:21:25;25.40;99.90
23079;DHT22;11707;50.830;4.364;2023-07-08T07:23:53;25.30;99.90
23079;DHT22;11707;50.830;4.364;2023-07-08T07:26:19;25.50;99.90
23079;DHT22;11707;50.830;4.364;2023-07-08T07:28:44;25.60;1.00
23079;DHT22;11707;50.830;4.364;2023-07-08T07:31:10;25.80;99.90
23079;DHT22;11707;50.830;4.364;2023-07-08T07:33:36;25.90;99.90
23079;DHT22;11707;50.830;4.364;2023-07-08T07:36:03;26.00;99.90
23079;DHT22;11707;50.830;4.364;2023-07-08T07:38:32;26.40;65.60
23079;DHT22;11707;50.830;4.364;2023-07-08T07:40:58;26.60;99.90
23079;DHT22;11707;50.830;4.364;2023-07-08T07:43:31;27.00;99.90
23079;DHT22;11707;50.830;4.364;2023-07-08T07:46:00;27.00;99.90
23079;DHT22;11707;50.830;4.364;2023-07-08T07:48:26;27.10;1.00
23079;DHT22;11707;50.830;4.364;2023-07-08T07:50:52;27.20;99.90
23079;DHT22;11707;50.830;4.364;2023-07-08T07:53:18;27.40;99.90
23079;DHT22;11707;50.830;4.364;2023-07-08T07:55:46;27.70;66.60
23079;DHT22;11707;50.830;4.364;2023-07-08T07:58:11;27.60;1.00
23079;DHT22;11707;50.830;4.364;2023-07-08T08:00:38;27.40;1.00
23079;DHT22;11707;50.830;4.364;2023-07-08T08:03:04;27.50;1.00
23079;DHT22;11707;50.830;4.364;2023-07-08T08:05:32;27.80;1.00
23079;DHT22;11707;50.830;4.364;2023-07-08T08:07:57;27.90;1.00
23079;DHT22;11707;50.830;4.364;2023-07-08T08:10:23;27.90;34.50
23079;DHT22;11707;50.830;4.364;2023-07-08T08:12:49;27.70;99.90
23079;DHT22;11707;50.830;4.364;2023-07-08T08:15:18;27.60;99.90
23079;DHT22;11707;50.830;4.364;2023-07-08T08:17:44;27.80;25.50
23079;DHT22;11707;50.830;4.364;2023-07-08T08:20:14;28.00;1.00
23079;DHT22;11707;50.830;4.364;2023-07-08T08:22:40;28.00;1.00
23079;DHT22;11707;50.830;4.364;2023-07-08T08:25:06;28.00;99.90
23079;DHT22;11707;50.830;4.364;2023-07-08T08:27:34;28.10;99.90
23079;DHT22;11707;50.830;4.364;2023-07-08T08:30:00;28.00;99.90
23079;DHT22;11707;50.830;4.364;2023-07-08T08:32:25;28.30;99.90
23079;DHT22;11707;50.830;4.364;2023-07-08T08:34:51;28.40;99.90
23079;DHT22;11707;50.830;4.364;2023-07-08T08:37:17;28.60;99.90
23079;DHT22;11707;50.830;4.364;2023-07-08T08:39:42;28.50;99.90
23079;DHT22;11707;50.830;4.364;2023-07-08T08:42:18;28.60;99.90
23079;DHT22;11707;50.830;4.364;2023-07-08T08:44:50;28.80;99.90
23079;DHT22;11707;50.830;4.364;2023-07-08T08:47:37;28.60;99.90
23079;DHT22;11707;50.830;4.364;2023-07-08T08:52:50;28.50;99.90
23079;DHT22;11707;50.830;4.364;2023-07-08T08:55:17;28.60;99.90
23079;DHT22;11707;50.830;4.364;2023-07-08T09:00:09;28.70;99.90
23079;DHT22;11707;50.830;4.364;2023-07-08T09:05:29;28.60;99.90
23079;DHT22;11707;50.830;4.364;2023-07-08T09:10:55;28.80;99.90
23079;DHT22;11707;50.830;4.364;2023-07-08T09:13:28;28.70;99.90
23079;DHT22;11707;50.830;4.364;2023-07-08T09:16:04;28.90;99.90
23079;DHT22;11707;50.830;4.364;2023-07-08T09:18:41;29.00;99.90
23079;DHT22;11707;50.830;4.364;2023-07-08T09:21:24;29.20;99.90
23079;DHT22;11707;50.830;4.364;2023-07-08T09:23:56;29.50;90.20
23079;DHT22;11707;50.830;4.364;2023-07-08T09:26:28;29.70;38.10
23079;DHT22;11707;50.830;4.364;2023-07-08T09:28:56;30.00;11.60
23079;DHT22;11707;50.830;4.364;2023-07-08T09:31:28;30.10;1.00
23079;DHT22;11707;50.830;4.364;2023-07-08T09:34:16;29.80;1.00
23079;DHT22;11707;50.830;4.364;2023-07-08T09:36:47;29.80;1.00
23079;DHT22;11707;50.830;4.364;2023-07-08T09:39:16;29.80;1.00
23079;DHT22;11707;50.830;4.364;2023-07-08T09:41:46;29.90;1.00
23079;DHT22;11707;50.830;4.364;2023-07-08T09:44:17;30.00;1.00
23079;DHT22;11707;50.830;4.364;2023-07-08T09:46:44;30.00;1.00
23079;DHT22;11707;50.830;4.364;2023-07-08T09:49:24;30.10;1.00
23079;DHT22;11707;50.830;4.364;2023-07-08T09:51:53;30.20;1.00
23079;DHT22;11707;50.830;4.364;2023-07-08T09:54:23;30.30;1.00
23079;DHT22;11707;50.830;4.364;2023-07-08T09:57:02;30.20;1.00
23079;DHT22;11707;50.830;4.364;2023-07-08T09:59:38;30.20;1.00
23079;DHT22;11707;50.830;4.364;2023-07-08T10:02:24;30.30;1.00
23079;DHT22;11707;50.830;4.364;2023-07-08T10:05:02;30.70;1.00
23079;DHT22;11707;50.830;4.364;2023-07-08T10:07:32;30.60;1.00
23079;DHT22;11707;50.830;4.364;2023-07-08T10:10:04;30.90;1.00
23079;DHT22;11707;50.830;4.364;2023-07-08T10:12:31;30.80;1.00
23079;DHT22;11707;50.830;4.364;2023-07-08T10:15:13;30.60;1.00
23079;DHT22;11707;50.830;4.364;2023-07-08T10:17:41;30.70;1.00
23079;DHT22;11707;50.830;4.364;2023-07-08T10:20:13;30.90;1.00
23079;DHT22;11707;50.830;4.364;2023-07-08T10:25:33;30.90;1.00
23079;DHT22;11707;50.830;4.364;2023-07-08T10:28:40;31.10;1.00
23079;DHT22;11707;50.830;4.364;2023-07-08T10:33:52;30.70;1.00
23079;DHT22;11707;50.830;4.364;2023-07-08T10:36:43;30.70;1.00
23079;DHT22;11707;50.830;4.364;2023-07-08T10:42:17;31.10;1.00
23079;DHT22;11707;50.830;4.364;2023-07-08T10:44:58;30.70;1.00
23079;DHT22;11707;50.830;4.364;2023-07-08T11:01:07;31.90;99.90
23079;DHT22;11707;50.830;4.364;2023-07-08T11:03:55;31.90;99.90
23079;DHT22;11707;50.830;4.364;2023-07-08T11:06:34;31.20;99.90
23079;DHT22;11707;50.830;4.364;2023-07-08T11:09:05;31.30;1.00
23079;DHT22;11707;50.830;4.364;2023-07-08T11:11:42;31.20;1.00
23079;DHT22;11707;50.830;4.364;2023-07-08T11:17:11;31.40;1.00
23079;DHT22;11707;50.830;4.364;2023-07-08T11:23:46;31.40;1.00
23079;DHT22;11707;50.830;4.364;2023-07-08T11:25:59;31.50;1.00
23079;DHT22;11707;50.830;4.364;2023-07-08T11:28:28;31.50;1.00
23079;DHT22;11707;50.830;4.364;2023-07-08T11:31:00;31.30;1.00
23079;DHT22;11707;50.830;4.364;2023-07-08T11:33:28;31.60;1.00
23079;DHT22;11707;50.830;4.364;2023-07-08T11:35:57;31.70;1.00
23079;DHT22;11707;50.830;4.364;2023-07-08T11:38:26;31.60;1.00
23079;DHT22;11707;50.830;4.364;2023-07-08T11:40:56;31.50;1.00
23079;DHT22;11707;50.830;4.364;2023-07-08T11:43:24;31.60;1.00
23079;DHT22;11707;50.830;4.364;2023-07-08T11:45:55;31.60;1.00
23079;DHT22;11707;50.830;4.364;2023-07-08T11:48:30;31.80;1.00
23079;DHT22;11707;50.830;4.364;2023-07-08T11:51:04;32.00;1.00
23079;DHT22;11707;50.830;4.364;2023-07-08T11:53:32;32.20;1.00
23079;DHT22;11707;50.830;4.364;2023-07-08T12:09:16;32.50;1.00
23079;DHT22;11707;50.830;4.364;2023-07-08T12:11:55;32.00;1.00
23079;DHT22;11707;50.830;4.364;2023-07-08T12:14:23;32.10;1.00
23079;DHT22;11707;50.830;4.364;2023-07-08T12:16:49;32.30;1.00
23079;DHT22;11707;50.830;4.364;2023-07-08T12:19:17;32.30;1.00
23079;DHT22;11707;50.830;4.364;2023-07-08T12:21:44;32.20;1.00
23079;DHT22;11707;50.830;4.364;2023-07-08T12:24:13;32.30;1.00
23079;DHT22;11707;50.830;4.364;2023-07-08T12:26:40;32.50;1.00
23079;DHT22;11707;50.830;4.364;2023-07-08T12:29:07;32.70;1.00
23079;DHT22;11707;50.830;4.364;2023-07-08T12:31:33;33.10;1.00
23079;DHT22;11707;50.830;4.364;2023-07-08T12:33:59;33.50;1.00
23079;DHT22;11707;50.830;4.364;2023-07-08T12:36:27;33.60;1.00
23079;DHT22;11707;50.830;4.364;2023-07-08T12:38:58;33.70;1.00
23079;DHT22;11707;50.830;4.364;2023-07-08T12:41:32;33.70;1.00
23079;DHT22;11707;50.830;4.364;2023-07-08T12:44:01;33.50;1.00
23079;DHT22;11707;50.830;4.364;2023-07-08T12:46:28;33.30;1.00
23079;DHT22;11707;50.830;4.364;2023-07-08T12:48:54;33.40;1.00
23079;DHT22;11707;50.830;4.364;2023-07-08T12:51:25;33.50;1.00
23079;DHT22;11707;50.830;4.364;2023-07-08T12:53:52;32.40;13.50
23079;DHT22;11707;50.830;4.364;2023-07-08T12:56:20;31.50;99.90
23079;DHT22;11707;50.830;4.364;2023-07-08T12:59:06;30.80;1.00
23079;DHT22;11707;50.830;4.364;2023-07-08T13:01:33;29.90;68.70
23079;DHT22;11707;50.830;4.364;2023-07-08T13:04:05;29.40;64.00
23079;DHT22;11707;50.830;4.364;2023-07-08T13:06:34;28.90;1.00
23079;DHT22;11707;50.830;4.364;2023-07-08T13:11:52;28.30;28.60
23079;DHT22;11707;50.830;4.364;2023-07-08T13:14:24;28.00;1.00
23079;DHT22;11707;50.830;4.364;2023-07-08T13:16:50;27.80;1.00
23079;DHT22;11707;50.830;4.364;2023-07-08T13:19:17;27.40;99.90
23079;DHT22;11707;50.830;4.364;2023-07-08T13:21:44;27.40;1.00
23079;DHT22;11707;50.830;4.364;2023-07-08T13:24:10;27.60;99.90
23079;DHT22;11707;50.830;4.364;2023-07-08T13:26:37;27.30;1.00
23079;DHT22;11707;50.830;4.364;2023-07-08T13:29:20;27.20;1.00
23079;DHT22;11707;50.830;4.364;2023-07-08T13:31:53;27.20;1.00
23079;DHT22;11707;50.830;4.364;2023-07-08T13:34:22;27.20;99.90
23079;DHT22;11707;50.830;4.364;2023-07-08T13:36:50;27.30;99.90
23079;DHT22;11707;50.830;4.364;2023-07-08T13:39:22;27.10;99.90
23079;DHT22;11707;50.830;4.364;2023-07-08T13:41:50;27.30;99.90
23079;DHT22;11707;50.830;4.364;2023-07-08T13:44:16;27.70;1.00
23079;DHT22;11707;50.830;4.364;2023-07-08T13:49:29;28.70;99.90
23079;DHT22;11707;50.830;4.364;2023-07-08T13:52:27;29.30;99.90
23079;DHT22;11707;50.830;4.364;2023-07-08T13:54:59;29.80;1.00
23079;DHT22;11707;50.830;4.364;2023-07-08T13:57:38;30.40;99.90
23079;DHT22;11707;50.830;4.364;2023-07-08T14:00:07;30.90;99.90
23079;DHT22;11707;50.830;4.364;2023-07-08T14:02:34;31.50;1.00
23079;DHT22;11707;50.830;4.364;2023-07-08T14:05:02;32.20;99.90
23079;DHT22;11707;50.830;4.364;2023-07-08T14:07:32;32.00;99.90
23079;DHT22;11707;50.830;4.364;2023-07-08T14:09:58;33.30;96.10
23079;DHT22;11707;50.830;4.364;2023-07-08T14:12:23;34.00;1.00
23079;DHT22;11707;50.830;4.364;2023-07-08T14:14:49;35.00;1.00
23079;DHT22;11707;50.830;4.364;2023-07-08T14:17:22;36.20;99.90
23079;DHT22;11707;50.830;4.364;2023-07-08T14:19:48;35.80;99.90
23079;DHT22;11707;50.830;4.364;2023-07-08T14:24:45;35.40;1.00
23079;DHT22;11707;50.830;4.364;2023-07-08T14:27:11;36.20;99.90
23079;DHT22;11707;50.830;4.364;2023-07-08T14:29:39;36.60;99.90
23079;DHT22;11707;50.830;4.364;2023-07-08T14:32:19;36.80;99.90
23079;DHT22;11707;50.830;4.364;2023-07-08T14:34:54;37.20;99.90
23079;DHT22;11707;50.830;4.364;2023-07-08T14:37:23;37.20;99.90
23079;DHT22;11707;50.830;4.364;2023-07-08T14:39:48;38.10;99.90
23079;DHT22;11707;50.830;4.364;2023-07-08T14:42:18;38.70;99.90
23079;DHT22;11707;50.830;4.364;2023-07-08T14:44:47;38.60;99.90
23079;DHT22;11707;50.830;4.364;2023-07-08T14:47:16;39.10;99.90
23079;DHT22;11707;50.830;4.364;2023-07-08T14:49:42;39.70;99.90
23079;DHT22;11707;50.830;4.364;2023-07-08T14:52:08;40.90;99.90
23079;DHT22;11707;50.830;4.364;2023-07-08T14:54:34;41.30;99.90
23079;DHT22;11707;50.830;4.364;2023-07-08T14:57:03;41.00;99.90
23079;DHT22;11707;50.830;4.364;2023-07-08T14:59:32;40.50;99.90
23079;DHT22;11707;50.830;4.364;2023-07-08T15:01:58;40.50;99.90
23079;DHT22;11707;50.830;4.364;2023-07-08T15:04:25;40.40;99.90
23079;DHT22;11707;50.830;4.364;2023-07-08T15:06:52;39.10;99.90
23079;DHT22;11707;50.830;4.364;2023-07-08T15:09:20;38.70;99.90
23079;DHT22;11707;50.830;4.364;2023-07-08T15:11:46;38.60;99.90
23079;DHT22;11707;50.830;4.364;2023-07-08T15:14:19;38.40;99.90
23079;DHT22;11707;50.830;4.364;2023-07-08T15:16:46;38.00;99.90
23079;DHT22;11707;50.830;4.364;2023-07-08T15:19:12;39.30;99.90
23079;DHT22;11707;50.830;4.364;2023-07-08T15:21:38;39.80;99.90
23079;DHT22;11707;50.830;4.364;2023-07-08T15:24:09;40.90;99.90
23079;DHT22;11707;50.830;4.364;2023-07-08T15:26:37;39.80;99.90
23079;DHT22;11707;50.830;4.364;2023-07-08T15:29:03;38.60;99.90
23079;DHT22;11707;50.830;4.364;2023-07-08T15:31:34;38.10;99.90
23079;DHT22;11707;50.830;4.364;2023-07-08T15:34:00;38.30;99.90
23079;DHT22;11707;50.830;4.364;2023-07-08T15:36:26;38.20;99.90
23079;DHT22;11707;50.830;4.364;2023-07-08T15:38:51;36.20;99.90
23079;DHT22;11707;50.830;4.364;2023-07-08T15:41:26;34.50;99.90
23079;DHT22;11707;50.830;4.364;2023-07-08T15:43:56;33.60;99.90
23079;DHT22;11707;50.830;4.364;2023-07-08T15:46:31;33.60;99.90
23079;DHT22;11707;50.830;4.364;2023-07-08T15:48:57;34.00;1.00
23079;DHT22;11707;50.830;4.364;2023-07-08T15:51:28;33.50;1.00
23079;DHT22;11707;50.830;4.364;2023-07-08T16:05:31;32.60;99.90
23079;DHT22;11707;50.830;4.364;2023-07-08T16:08:01;32.30;99.90
23079;DHT22;11707;50.830;4.364;2023-07-08T16:10:28;32.30;99.90
23079;DHT22;11707;50.830;4.364;2023-07-08T16:12:54;32.20;99.90
23079;DHT22;11707;50.830;4.364;2023-07-08T16:15:39;32.20;99.90
23079;DHT22;11707;50.830;4.364;2023-07-08T16:18:09;32.10;99.90
23079;DHT22;11707;50.830;4.364;2023-07-08T16:20:36;32.20;99.90
23079;DHT22;11707;50.830;4.364;2023-07-08T16:23:02;32.30;99.90
23079;DHT22;11707;50.830;4.364;2023-07-08T16:25:30;32.30;99.90
23079;DHT22;11707;50.830;4.364;2023-07-08T16:27:57;32.10;99.90
23079;DHT22;11707;50.830;4.364;2023-07-08T16:30:24;32.20;99.90
23079;DHT22;11707;50.830;4.364;2023-07-08T16:32:51;31.90;99.90
23079;DHT22;11707;50.830;4.364;2023-07-08T16:35:18;31.80;99.90
23079;DHT22;11707;50.830;4.364;2023-07-08T16:37:50;31.90;99.90
23079;DHT22;11707;50.830;4.364;2023-07-08T16:40:24;32.00;99.90
23079;DHT22;11707;50.830;4.364;2023-07-08T16:42:54;32.00;99.90
23079;DHT22;11707;50.830;4.364;2023-07-08T16:45:24;31.90;99.90
23079;DHT22;11707;50.830;4.364;2023-07-08T16:47:50;31.90;99.90
23079;DHT22;11707;50.830;4.364;2023-07-08T16:50:19;32.00;99.90
23079;DHT22;11707;50.830;4.364;2023-07-08T16:52:45;32.00;99.90
23079;DHT22;11707;50.830;4.364;2023-07-08T16:55:17;32.10;99.90
23079;DHT22;11707;50.830;4.364;2023-07-08T16:57:46;32.10;99.90
23079;DHT22;11707;50.830;4.364;2023-07-08T17:00:20;32.00;99.90
23079;DHT22;11707;50.830;4.364;2023-07-08T17:02:47;31.90;99.90
23079;DHT22;11707;50.830;4.364;2023-07-08T17:05:23;31.70;99.60
23079;DHT22;11707;50.830;4.364;2023-07-08T17:07:49;31.60;96.00
23079;DHT22;11707;50.830;4.364;2023-07-08T17:10:17;31.50;99.90